首页
METAR-TAF:

METAR-TAF

机场 :

毕晓普, 加利福尼亚州, 美国

纬度: 37-22-16N, 经度: 118-21-29W, 海拔: 1256米

当前天气观测

该预报发布于9分钟前的23:56 UTC
风速8节,风向西
温度 33°C
湿度 19%
气压 1018 hPa
能見度: 16.1公里
少量云层高于10000英尺

METAR: KBIH 152356Z AUTO 28008KT 10SM FEW100 33/06 A3006 RMK AO2 LTG DSNT W SLP128 T03330056 10350 20306 56017

时间: 17:05 (00:05 UTC)

预报

该预报发布于45分钟前的23:20 UTC
预报有效从16日的 00点(UTC)到 16日的 24点(UTC)
风速7节,风向西转西南
能見度: 10公里
散云层高于12000英尺
多云层高于15000英尺
从 16日的 0100点(UTC)
风速10节,风向西
能見度: 10公里
散云层高于12000英尺
散云层高于15000英尺
从 16日的 0700点(UTC)
风速7节,风向北转西北
能見度: 10公里
少量云层高于12000英尺
散云层高于15000英尺
从 16日的 2200点(UTC)
风速7节,风向南转西南
能見度: 10公里
少量云层高于12000英尺
多云层高于15000英尺

TAF: KBIH 152320Z 1600/1624 24007KT P6SM SCT120 BKN150 FM160100 28010KT P6SM SCT120 SCT150 FM160700 33007KT P6SM FEW120 SCT150 FM162200 20007KT P6SM FEW120 BKN150

超过4000个机场的气象观测和天气预报(METAR&TAF报告)。

可查询的气象台以黄色和红色小点在地图上表示。

将鼠标移到小点上方,可查看气象台名称。

然后点击查看天气观测和预报。

如需切换地图:点击带黑十字的绿色按钮放大地图;点击带横线的绿色按钮缩小地图;或者点击绿色箭头查看邻近地区的地图。


METAR-TAF: